createdAt,value
2018-08-03T00:00:02.760Z,21.2
2018-08-03T00:05:02.873Z,21.2
2018-08-03T00:10:02.427Z,21.2
2018-08-03T00:15:02.841Z,21.0
2018-08-03T00:20:02.267Z,21.0
2018-08-03T00:25:02.770Z,21.0
2018-08-03T00:30:03.242Z,20.8
2018-08-03T00:35:02.640Z,20.8
2018-08-03T00:40:03.091Z,20.7
2018-08-03T00:45:02.866Z,20.7
2018-08-03T00:50:02.500Z,20.7
2018-08-03T00:55:02.854Z,20.7
2018-08-03T01:00:02.354Z,20.6
2018-08-03T01:05:02.806Z,20.3
2018-08-03T01:10:02.292Z,20.3
2018-08-03T01:15:02.803Z,20.3
2018-08-03T01:20:02.307Z,20.2
2018-08-03T01:25:02.752Z,20.2
2018-08-03T01:30:03.249Z,20.2
2018-08-03T01:35:02.739Z,20.2
2018-08-03T01:40:02.265Z,20.2
2018-08-03T01:45:02.719Z,20.1
2018-08-03T01:50:03.204Z,20.1
2018-08-03T01:55:02.656Z,20.0
2018-08-03T02:00:03.022Z,20.0
2018-08-03T02:05:02.524Z,20.0
2018-08-03T02:10:03.077Z,20.0
2018-08-03T02:15:02.449Z,19.7
2018-08-03T02:20:02.826Z,19.7
2018-08-03T02:25:03.202Z,19.7
2018-08-03T02:30:02.615Z,19.7
2018-08-03T02:35:03.057Z,19.7
2018-08-03T02:40:02.507Z,19.5
2018-08-03T02:45:02.944Z,19.5
2018-08-03T02:50:02.433Z,19.5
2018-08-03T02:55:02.871Z,19.3
2018-08-03T03:00:02.278Z,19.2
2018-08-03T03:05:02.781Z,19.1
2018-08-03T03:10:02.303Z,19.1
2018-08-03T03:15:02.752Z,19.1
2018-08-03T03:20:03.219Z,19.0
2018-08-03T03:25:02.649Z,19.0
2018-08-03T03:30:03.107Z,19.0
2018-08-03T03:35:02.569Z,18.8
2018-08-03T03:40:03.037Z,18.7
2018-08-03T03:45:02.422Z,18.7
2018-08-03T03:50:02.887Z,18.7
2018-08-03T03:55:03.255Z,18.6
2018-08-03T04:00:02.669Z,18.6
2018-08-03T04:05:03.102Z,18.6
2018-08-03T04:10:02.561Z,18.6
2018-08-03T04:15:02.940Z,18.6
2018-08-03T04:20:02.368Z,18.6
2018-08-03T04:25:02.792Z,18.2
2018-08-03T04:30:02.649Z,18.5
2018-08-03T04:35:03.043Z,18.5
2018-08-03T04:40:02.565Z,18.5
2018-08-03T04:45:03.083Z,18.6
2018-08-03T04:50:02.529Z,18.5
2018-08-03T04:55:02.941Z,18.5
2018-08-03T05:00:02.405Z,18.6
2018-08-03T05:05:02.795Z,18.7
2018-08-03T05:10:02.344Z,18.8
2018-08-03T05:15:02.776Z,18.8
2018-08-03T05:20:03.174Z,19.0
2018-08-03T05:25:02.574Z,19.1
2018-08-03T05:30:02.990Z,19.1
2018-08-03T05:35:02.420Z,19.2
2018-08-03T05:40:02.963Z,19.2
2018-08-03T05:45:02.308Z,19.5
2018-08-03T05:50:02.935Z,19.5
2018-08-03T05:55:02.583Z,19.7
2018-08-03T06:00:03.064Z,20.0
2018-08-03T06:05:02.469Z,20.1
2018-08-03T06:10:03.030Z,20.2
2018-08-03T06:15:02.441Z,20.7
2018-08-03T06:20:02.922Z,21.0
2018-08-03T06:25:02.306Z,21.2
2018-08-03T06:30:02.734Z,21.2
2018-08-03T06:35:03.115Z,21.3
2018-08-03T06:40:02.509Z,21.6
2018-08-03T06:45:02.949Z,21.8
2018-08-03T06:50:02.387Z,21.8
2018-08-03T06:55:02.834Z,22.2
2018-08-03T07:00:02.304Z,22.3
2018-08-03T07:05:02.670Z,22.6
2018-08-03T07:10:03.212Z,22.7
2018-08-03T07:15:02.622Z,23.1
2018-08-03T07:20:03.172Z,23.3
2018-08-03T07:25:03.078Z,23.7
2018-08-03T07:30:02.528Z,24.0
2018-08-03T07:35:02.995Z,24.2
2018-08-03T07:40:02.553Z,24.3
2018-08-03T07:45:02.821Z,24.7
2018-08-03T07:50:02.703Z,24.7
2018-08-03T07:55:03.164Z,25.3
2018-08-03T08:00:02.534Z,25.6
2018-08-03T08:05:03.099Z,26.1
2018-08-03T08:10:02.545Z,26.7
2018-08-03T08:15:03.000Z,26.7
2018-08-03T08:20:02.454Z,27.3
2018-08-03T08:25:02.880Z,27.8
2018-08-03T08:30:02.331Z,28.7
2018-08-03T08:35:02.804Z,30.0
2018-08-03T08:40:03.237Z,30.2
2018-08-03T08:45:02.907Z,31.1
2018-08-03T08:50:02.394Z,31.2
2018-08-03T08:55:02.820Z,31.3
2018-08-03T09:00:02.308Z,31.2
2018-08-03T09:05:02.825Z,31.2
2018-08-03T09:10:02.311Z,31.2
2018-08-03T09:15:02.926Z,32.5
2018-08-03T09:20:02.376Z,32.0
2018-08-03T09:25:02.780Z,32.5
2018-08-03T09:30:03.122Z,32.5
2018-08-03T09:35:02.642Z,32.9
2018-08-03T09:40:03.214Z,32.9
2018-08-03T09:45:02.607Z,34.5
2018-08-03T09:50:03.037Z,34.7
2018-08-03T09:55:02.477Z,35.7
2018-08-03T10:00:02.915Z,35.4
2018-08-03T10:05:02.525Z,35.0
2018-08-03T10:10:02.993Z,34.7
2018-08-03T10:15:02.389Z,34.7
2018-08-03T10:20:02.831Z,35.2
2018-08-03T10:25:02.274Z,35.5
2018-08-03T10:30:02.733Z,35.5
2018-08-03T10:35:03.175Z,35.0
2018-08-03T10:40:02.795Z,35.7
2018-08-03T10:45:02.277Z,33.5
2018-08-03T10:50:02.686Z,35.0
2018-08-03T10:55:03.483Z,36.2
2018-08-03T11:00:02.923Z,36.0
2018-08-03T11:05:02.373Z,36.2
2018-08-03T11:10:02.823Z,35.0
2018-08-03T11:15:02.266Z,36.0
2018-08-03T11:20:02.689Z,36.7
2018-08-03T11:25:03.106Z,36.4
2018-08-03T11:30:02.515Z,37.0
2018-08-03T11:35:02.985Z,36.7
2018-08-03T11:40:02.668Z,36.5
2018-08-03T11:45:03.150Z,36.2
2018-08-03T11:50:02.565Z,36.0
2018-08-03T11:55:02.958Z,37.2
2018-08-03T12:00:02.447Z,36.7
2018-08-03T12:05:02.910Z,36.4
2018-08-03T12:10:02.396Z,36.5
2018-08-03T12:15:02.563Z,37.7
2018-08-03T12:20:02.941Z,38.0
2018-08-03T12:25:02.366Z,37.0
2018-08-03T12:30:02.765Z,38.0
2018-08-03T12:35:02.465Z,37.2
2018-08-03T12:40:03.130Z,37.5
2018-08-03T12:45:02.879Z,38.0
2018-08-03T12:50:02.308Z,37.9
2018-08-03T12:55:02.639Z,36.7
2018-08-03T13:00:03.107Z,37.5
2018-08-03T13:05:02.659Z,36.5
2018-08-03T13:10:02.304Z,36.7
2018-08-03T13:15:02.720Z,37.0
2018-08-03T13:20:03.206Z,37.7
2018-08-03T13:25:02.621Z,37.2
2018-08-03T13:30:03.025Z,38.7
2018-08-03T13:35:02.408Z,36.7
2018-08-03T13:40:02.860Z,37.2
2018-08-03T13:45:03.229Z,38.7
2018-08-03T13:50:02.656Z,36.7
2018-08-03T13:55:03.088Z,38.0
2018-08-03T14:00:02.446Z,38.2
2018-08-03T14:05:03.066Z,39.4
2018-08-03T14:10:02.545Z,38.7
2018-08-03T14:15:02.976Z,38.7
2018-08-03T14:20:02.441Z,38.7
2018-08-03T14:25:02.916Z,38.5
2018-08-03T14:30:02.408Z,39.4
2018-08-03T14:35:02.286Z,37.2
2018-08-03T14:40:02.772Z,38.5
2018-08-03T14:45:03.194Z,38.5
2018-08-03T14:50:02.646Z,38.0
2018-08-03T14:55:03.394Z,38.5
2018-08-03T15:00:03.082Z,38.0
2018-08-03T15:05:02.882Z,37.4
2018-08-03T15:10:02.357Z,38.2
2018-08-03T15:15:02.817Z,38.5
2018-08-03T15:20:03.229Z,37.7
2018-08-03T15:25:02.657Z,37.5
2018-08-03T15:30:03.039Z,38.0
2018-08-03T15:35:02.498Z,37.9
2018-08-03T15:40:02.957Z,38.0
2018-08-03T15:45:02.474Z,38.0
2018-08-03T15:50:02.932Z,37.7
2018-08-03T15:55:02.367Z,38.2
2018-08-03T16:00:02.823Z,38.2
2018-08-03T16:05:02.263Z,38.0
2018-08-03T16:10:02.763Z,37.9
2018-08-03T16:15:03.142Z,37.9
2018-08-03T16:20:02.683Z,37.0
2018-08-03T16:25:03.112Z,36.7
2018-08-03T16:30:02.531Z,37.0
2018-08-03T16:35:02.893Z,36.2
2018-08-03T16:40:02.430Z,37.0
2018-08-03T16:45:02.891Z,36.4
2018-08-03T16:50:02.287Z,35.7
2018-08-03T16:55:02.768Z,36.2
2018-08-03T17:00:03.205Z,35.9
2018-08-03T17:05:02.606Z,35.7
2018-08-03T17:10:03.028Z,35.7
2018-08-03T17:15:02.404Z,35.7
2018-08-03T17:20:03.080Z,35.4
2018-08-03T17:25:02.573Z,35.0
2018-08-03T17:30:03.024Z,35.0
2018-08-03T17:35:02.444Z,35.0
2018-08-03T17:40:02.899Z,34.9
2018-08-03T17:45:02.331Z,34.7
2018-08-03T17:50:02.833Z,34.0
2018-08-03T17:55:02.350Z,33.2
2018-08-03T18:00:02.826Z,33.2
2018-08-03T18:05:02.362Z,32.5
2018-08-03T18:10:02.907Z,32.5
2018-08-03T18:15:02.318Z,32.4
2018-08-03T18:20:02.882Z,32.0
2018-08-03T18:25:02.312Z,31.3
2018-08-03T18:30:02.754Z,31.2
2018-08-03T18:35:03.191Z,30.5
2018-08-03T18:40:02.788Z,30.1
2018-08-03T18:45:03.205Z,29.7
2018-08-03T18:50:02.664Z,29.6
2018-08-03T18:55:03.234Z,29.2
2018-08-03T19:00:02.592Z,29.1
2018-08-03T19:05:03.045Z,28.7
2018-08-03T19:10:02.549Z,28.6
2018-08-03T19:15:02.507Z,28.3
2018-08-03T19:20:03.011Z,28.2
2018-08-03T19:25:02.457Z,28.1
2018-08-03T19:30:02.972Z,27.8
2018-08-03T19:35:02.419Z,27.7
2018-08-03T19:40:02.929Z,27.7
2018-08-03T19:45:02.434Z,27.3
2018-08-03T19:50:03.147Z,27.3
2018-08-03T19:55:02.608Z,27.2
2018-08-03T20:00:03.391Z,27.1
2018-08-03T20:05:02.976Z,26.8
2018-08-03T20:10:02.677Z,26.7
2018-08-03T20:15:03.174Z,26.7
2018-08-03T20:20:02.650Z,26.5
2018-08-03T20:25:03.118Z,26.2
2018-08-03T20:30:02.487Z,26.2
2018-08-03T20:35:02.960Z,26.1
2018-08-03T20:40:02.420Z,26.0
2018-08-03T20:45:02.805Z,25.8
2018-08-03T20:50:02.300Z,25.7
2018-08-03T20:55:02.775Z,25.6
2018-08-03T21:00:03.231Z,25.6
2018-08-03T21:05:03.042Z,25.5
2018-08-03T21:10:02.658Z,25.5
2018-08-03T21:15:03.030Z,25.5
2018-08-03T21:20:02.563Z,25.3
2018-08-03T21:25:03.088Z,25.1
2018-08-03T21:30:02.835Z,25.0
2018-08-03T21:35:02.462Z,24.7
2018-08-03T21:40:02.903Z,24.7
2018-08-03T21:45:02.371Z,24.6
2018-08-03T21:50:02.715Z,24.5
2018-08-03T21:55:03.114Z,24.5
2018-08-03T22:00:02.539Z,24.3
2018-08-03T22:05:03.167Z,24.2
2018-08-03T22:10:02.694Z,24.2
2018-08-03T22:15:03.093Z,24.2
2018-08-03T22:20:02.687Z,24.0
2018-08-03T22:25:03.154Z,24.0
2018-08-03T22:30:02.521Z,23.7
2018-08-03T22:35:03.088Z,23.7
2018-08-03T22:40:02.473Z,23.6
2018-08-03T22:45:02.898Z,23.3
2018-08-03T22:50:02.332Z,23.3
2018-08-03T22:55:02.713Z,23.2
2018-08-03T23:00:03.136Z,23.2
2018-08-03T23:05:03.165Z,23.0
2018-08-03T23:10:02.602Z,23.0
2018-08-03T23:15:03.017Z,23.0
2018-08-03T23:20:02.501Z,22.7
2018-08-03T23:25:02.922Z,22.7
2018-08-03T23:30:02.323Z,22.7
2018-08-03T23:35:02.773Z,22.6
2018-08-03T23:40:02.295Z,22.5
2018-08-03T23:45:02.768Z,22.2
2018-08-03T23:50:03.184Z,22.2
2018-08-03T23:55:02.670Z,22.1
